Mabank, Texas
Current Conditions -  °F | °C
As of 3:55 PM on Thursday 27 Nov 2014 (Local Time) from KF44 Reporting Station
Clear Clear  
Wind Chill: 59°   Ceiling: Unl
Heat Index: 59°   Visibility: 10mi
Dew Point: 25°   Wind: 3mph
Humidity: 27%   Direction: 140°SE
Pressure: 30.41"   Gusts: NA
Location:  32.37°N, 96.1°W
Report Text: KF44 272155Z AUTO 14003KT 10SM CLR 15/M04 A3041 RMK AO2
Loading
Personal Weather Stations






























Interactive Weather Map New forecast layout! Learn more

10-Day Weather Forecast

Advertisements
Track Severe Weather on mobile